Time;durP1;ratioP1;P1;durP2;ratioP2;P2;SDS_P1;SDS_P2;PMS_P1;PMS_P2;Temp;Humidity;BMP_temperature;BMP_pressure;BME280_temperature;BME280_humidity;BME280_pressure;Samples;Min_cycle;Max_cycle;Signal;HPM_P1;HPM_P2
2021/12/31 00:01:45;;;;;;;1.87;1.70;;;;;;;5.75;100.00;98782.34;1804451;77;20958;-60
2021/12/31 00:04:12;;;;;;;1.63;1.53;;;;;;;5.79;100.00;98787.77;1818355;77;20946;-60
2021/12/31 00:06:42;;;;;;;1.40;1.30;;;;;;;5.80;100.00;98781.70;1808863;77;21257;-61
2021/12/31 00:09:07;;;;;;;1.57;1.47;;;;;;;5.88;100.00;98773.15;1811798;77;20908;-61
2021/12/31 00:11:35;;;;;;;1.93;1.67;;;;;;;5.93;100.00;98779.41;1807273;77;20888;-61
2021/12/31 00:14:02;;;;;;;1.60;1.22;;;;;;;5.96;100.00;98780.14;1805997;77;21596;-61
2021/12/31 00:16:29;;;;;;;1.07;1.05;;;;;;;5.98;100.00;98782.22;1813349;77;21582;-61
2021/12/31 00:18:56;;;;;;;1.60;1.03;;;;;;;6.01;100.00;98782.08;1810509;77;21265;-61
2021/12/31 00:21:22;;;;;;;1.63;1.20;;;;;;;6.03;100.00;98786.75;1813050;77;20977;-61
2021/12/31 00:23:50;;;;;;;2.25;1.15;;;;;;;6.05;100.00;98778.46;1809469;77;21469;-61
2021/12/31 00:26:16;;;;;;;1.27;1.10;;;;;;;6.11;100.00;98773.46;1799397;78;20885;-61
2021/12/31 00:28:43;;;;;;;1.62;1.42;;;;;;;6.17;100.00;98768.46;1802711;77;21462;-61
2021/12/31 00:31:09;;;;;;;2.40;1.17;;;;;;;6.17;100.00;98781.42;1809843;77;21086;-60
2021/12/31 00:33:36;;;;;;;1.37;1.20;;;;;;;6.23;100.00;98772.07;1789114;77;21466;-61
2021/12/31 00:36:03;;;;;;;0.80;0.80;;;;;;;6.25;100.00;98775.45;1805941;77;20924;-61
2021/12/31 00:38:30;;;;;;;1.75;1.10;;;;;;;6.30;100.00;98772.16;1804506;77;28029;-60
2021/12/31 00:40:57;;;;;;;1.07;0.97;;;;;;;6.32;100.00;98775.54;1804240;77;20888;-61
2021/12/31 00:43:23;;;;;;;1.47;1.00;;;;;;;6.34;100.00;98784.09;1816345;77;21090;-61
2021/12/31 00:45:50;;;;;;;1.42;1.32;;;;;;;6.37;100.00;98776.64;1780635;77;20939;-61
2021/12/31 00:48:17;;;;;;;1.20;0.90;;;;;;;6.38;100.00;98777.84;1806408;77;21548;-61
2021/12/31 00:50:44;;;;;;;1.27;1.00;;;;;;;6.41;100.00;98759.59;1805948;77;21130;-61
2021/12/31 00:53:10;;;;;;;1.30;1.20;;;;;;;6.42;100.00;98766.44;1788575;78;21490;-61
2021/12/31 00:55:37;;;;;;;1.30;1.10;;;;;;;6.45;100.00;98772.78;1805944;77;21143;-61
2021/12/31 00:58:06;;;;;;;1.47;1.20;;;;;;;6.45;100.00;98772.78;1815946;77;21452;-61
2021/12/31 01:00:34;;;;;;;1.47;1.00;;;;;;;6.46;100.00;98784.83;1794696;78;20956;-61
2021/12/31 01:03:00;;;;;;;;;;;;;;;6.48;100.00;98790.80;1810268;77;21465;-61
2021/12/31 01:05:27;;;;;;;2.08;1.22;;;;;;;6.49;100.00;98789.87;1817458;77;20081;-61
2021/12/31 01:07:54;;;;;;;1.60;1.32;;;;;;;6.49;100.00;98788.58;1826424;77;21388;-61
2021/12/31 01:10:23;;;;;;;2.62;1.20;;;;;;;6.50;100.00;98792.88;1815316;77;21495;-61
2021/12/31 01:12:51;;;;;;;1.52;1.20;;;;;;;6.50;100.00;98800.66;1801612;77;21498;-61
2021/12/31 01:15:22;;;;;;;1.75;1.32;;;;;;;6.54;100.00;98804.40;1813072;77;20939;-61
2021/12/31 01:20:22;;;;;;;1.60;1.25;;;;;;;6.62;100.00;98798.41;1799694;77;21486;-61
2021/12/31 01:22:49;;;;;;;1.55;1.25;;;;;;;6.64;100.00;98799.19;1806111;77;20950;-62
2021/12/31 01:25:16;;;;;;;1.55;1.27;;;;;;;6.64;100.00;98791.41;1807438;77;21029;-61
2021/12/31 01:27:43;;;;;;;1.32;1.20;;;;;;;6.66;100.00;98786.97;1813309;77;21055;-61
2021/12/31 01:30:14;;;;;;;1.00;0.90;;;;;;;6.69;100.00;98789.41;1797535;77;20986;-61
2021/12/31 01:32:42;;;;;;;0.78;0.70;;;;;;;6.69;100.00;98789.41;1796863;78;21084;-62
2021/12/31 01:35:09;;;;;;;1.00;0.90;;;;;;;6.73;100.00;98780.59;1781676;77;20942;-61
2021/12/31 01:37:36;;;;;;;1.52;1.00;;;;;;;6.78;100.00;98786.41;1804144;77;20973;-61
2021/12/31 01:40:06;;;;;;;1.12;1.02;;;;;;;6.80;100.00;98781.97;1774624;78;46565;-61
2021/12/31 01:42:34;;;;;;;1.40;1.30;;;;;;;6.83;100.00;98789.61;1806431;77;20975;-61
2021/12/31 01:45:16;;;;;;;0.80;0.78;;;;;;;6.85;100.00;98787.80;1805081;77;21776;-61
2021/12/31 01:50:30;;;;;;;0.88;0.88;;;;;;;6.91;100.00;98781.47;1793542;77;20995;-61
2021/12/31 01:52:58;;;;;;;1.70;0.85;;;;;;;6.92;100.00;98793.09;1801578;78;20891;-61
2021/12/31 01:55:29;;;;;;;1.80;1.37;;;;;;;6.93;100.00;98785.68;1802282;77;20920;-61
2021/12/31 01:57:56;;;;;;;0.65;0.65;;;;;;;7.00;100.00;98795.77;1802203;78;21524;-61
2021/12/31 02:00:23;;;;;;;0.80;0.80;;;;;;;7.01;100.00;98784.49;1803637;77;21496;-61
2021/12/31 02:02:51;;;;;;;0.88;0.75;;;;;;;7.00;100.00;98778.89;1809105;77;20936;-61
2021/12/31 02:05:18;;;;;;;1.10;0.88;;;;;;;7.03;100.00;98782.64;1765652;79;20951;-62
2021/12/31 02:07:45;;;;;;;1.17;1.07;;;;;;;7.05;100.00;98776.93;1742030;79;20927;-61
2021/12/31 02:10:12;;;;;;;0.80;0.80;;;;;;;7.07;100.00;98776.41;1762129;80;22447;-62
2021/12/31 02:12:46;;;;;;;0.47;0.45;;;;;;;7.10;100.00;98781.45;1760825;80;20887;-61
2021/12/31 02:15:17;;;;;;;0.82;0.50;;;;;;;7.13;100.00;98783.89;1749758;80;20945;-61
2021/12/31 02:17:47;;;;;;;0.65;0.50;;;;;;;7.14;100.00;98787.73;1811628;77;20918;-61
2021/12/31 02:20:18;;;;;;;0.70;0.62;;;;;;;7.18;100.00;98787.11;1812991;77;20888;-61
2021/12/31 02:22:55;;;;;;;0.62;0.57;;;;;;;7.20;100.00;98782.70;1802850;77;21866;-61
2021/12/31 02:25:23;;;;;;;0.88;0.60;;;;;;;7.23;100.00;98787.73;1809198;77;20974;-61
2021/12/31 02:27:50;;;;;;;0.47;0.30;;;;;;;7.26;100.00;98790.18;1814279;77;20954;-62
2021/12/31 02:30:16;;;;;;;0.80;0.80;;;;;;;7.28;100.00;98796.15;1801730;77;21398;-61
2021/12/31 02:32:43;;;;;;;0.80;0.70;;;;;;;7.29;100.00;98791.33;1805853;77;20926;-61
2021/12/31 02:35:10;;;;;;;0.50;0.50;;;;;;;7.31;100.00;98793.41;1807974;77;21244;-61
2021/12/31 02:37:37;;;;;;;0.70;0.70;;;;;;;7.31;100.00;98788.20;1807354;77;20988;-61
2021/12/31 02:40:07;;;;;;;0.80;0.60;;;;;;;7.30;100.00;98795.59;1806481;77;20843;-61
2021/12/31 02:42:34;;;;;;;0.75;0.75;;;;;;;7.33;100.00;98804.53;1810585;77;21485;-62
2021/12/31 02:45:01;;;;;;;0.60;0.50;;;;;;;7.36;100.00;98799.19;1806758;77;21580;-61
2021/12/31 02:47:27;;;;;;;1.60;1.50;;;;;;;7.38;100.00;98799.13;1804483;77;21857;-61
2021/12/31 02:49:54;;;;;;;1.05;0.88;;;;;;;7.39;100.00;98806.86;1810682;77;20843;-61
2021/12/31 02:52:21;;;;;;;0.57;0.57;;;;;;;7.38;100.00;98805.16;1808416;77;21046;-61
2021/12/31 02:54:49;;;;;;;0.78;0.70;;;;;;;7.38;100.00;98799.13;1798689;77;20990;-62
2021/12/31 02:57:18;;;;;;;0.80;0.80;;;;;;;7.37;100.00;98798.29;1814734;77;20910;-61
2021/12/31 02:59:45;;;;;;;0.70;0.57;;;;;;;7.39;100.00;98797.77;1801169;77;21232;-61
2021/12/31 03:02:13;;;;;;;0.85;0.60;;;;;;;7.40;100.00;98802.03;1812229;77;20945;-61
2021/12/31 03:04:40;;;;;;;1.02;0.62;;;;;;;7.42;100.00;98794.61;1807504;77;24986;-61
2021/12/31 03:07:12;;;;;;;0.68;0.60;;;;;;;7.42;100.00;98805.00;1793066;77;20934;-61
2021/12/31 03:09:43;;;;;;;1.20;1.00;;;;;;;7.40;100.00;98804.63;1808382;77;21504;-61
2021/12/31 03:12:09;;;;;;;0.60;0.60;;;;;;;7.39;100.00;98809.45;1782011;77;21099;-61
2021/12/31 03:14:38;;;;;;;0.78;0.70;;;;;;;7.43;100.00;98804.11;1799457;77;20866;-61
2021/12/31 03:17:06;;;;;;;0.80;0.78;;;;;;;7.44;100.00;98809.67;1768700;77;20924;-61
2021/12/31 03:19:34;;;;;;;6.15;0.90;;;;;;;7.45;100.00;98807.45;1802091;77;21032;-61
2021/12/31 03:22:00;;;;;;;1.02;0.93;;;;;;;7.44;100.00;98810.97;1789309;78;21002;-61
2021/12/31 03:24:27;;;;;;;1.12;0.90;;;;;;;7.45;100.00;98810.04;1809791;77;21507;-61
2021/12/31 03:26:54;;;;;;;1.10;0.93;;;;;;;7.46;100.00;98811.74;1808426;77;21574;-61
2021/12/31 03:29:22;;;;;;;0.90;0.80;;;;;;;7.48;100.00;98805.99;1810782;77;20980;-61
2021/12/31 03:31:49;;;;;;;0.90;0.70;;;;;;;7.47;100.00;98805.63;1809363;77;20969;-61
2021/12/31 03:34:16;;;;;;;1.30;1.20;;;;;;;7.47;100.00;98806.92;1806455;77;20915;-61
2021/12/31 03:36:43;;;;;;;0.80;0.70;;;;;;;7.49;100.00;98801.20;1801717;77;21734;-61
2021/12/31 03:39:11;;;;;;;4.17;0.90;;;;;;;7.49;100.00;98795.55;1813357;77;20919;-61
2021/12/31 03:41:37;;;;;;;1.15;0.90;;;;;;;7.51;100.00;98799.38;1814139;77;20951;-61
2021/12/31 03:44:06;;;;;;;0.95;0.70;;;;;;;7.51;100.00;98784.62;1803963;77;20863;-61
2021/12/31 03:46:33;;;;;;;0.95;0.78;;;;;;;7.49;100.00;98789.05;1808757;77;21532;-61
2021/12/31 03:49:00;;;;;;;1.75;1.00;;;;;;;7.52;100.00;98790.66;1807554;77;21828;-61
2021/12/31 03:51:26;;;;;;;2.67;1.10;;;;;;;7.53;100.00;98792.33;1813933;77;20931;-62
2021/12/31 03:53:53;;;;;;;1.20;1.00;;;;;;;7.54;100.00;98791.42;1813306;77;20918;-61
2021/12/31 03:56:22;;;;;;;1.10;1.00;;;;;;;7.55;100.00;98793.09;1806767;77;21511;-61
2021/12/31 03:58:48;;;;;;;0.80;0.80;;;;;;;7.60;100.00;98796.31;1815514;77;20937;-62
2021/12/31 04:01:15;;;;;;;1.00;0.90;;;;;;;7.65;100.00;98790.44;1815699;77;21086;-61
2021/12/31 04:03:42;;;;;;;1.45;1.35;;;;;;;7.66;100.00;98788.67;1803665;77;20926;-62
2021/12/31 04:06:08;;;;;;;1.60;1.27;;;;;;;7.67;100.00;98801.56;1805831;77;21469;-61
2021/12/31 04:08:35;;;;;;;1.42;0.90;;;;;;;7.69;100.00;98795.84;1806182;77;20888;-61
2021/12/31 04:11:04;;;;;;;1.33;1.23;;;;;;;7.73;100.00;98801.28;1805091;77;21007;-61
2021/12/31 04:13:31;;;;;;;0.80;0.80;;;;;;;7.75;100.00;98790.33;1806747;77;21167;-61
2021/12/31 04:15:57;;;;;;;0.80;0.80;;;;;;;7.76;100.00;98797.23;1810522;77;21602;-61
2021/12/31 04:18:26;;;;;;;1.60;1.50;;;;;;;7.80;100.00;98797.91;1811322;77;20999;-62
2021/12/31 04:20:55;;;;;;;1.20;1.10;;;;;;;7.82;100.00;98794.31;1806425;77;20938;-61
2021/12/31 04:23:34;;;;;;;0.60;0.50;;;;;;;7.83;100.00;98801.19;1740963;79;20947;-61
2021/12/31 04:26:00;;;;;;;1.07;0.90;;;;;;;7.84;100.00;98805.48;1720693;81;22291;-61
2021/12/31 04:28:28;;;;;;;0.68;0.68;;;;;;;7.84;100.00;98802.02;1765578;78;21552;-61
2021/12/31 04:30:57;;;;;;;0.60;0.60;;;;;;;7.84;100.00;98812.41;1803585;77;21444;-61
2021/12/31 04:33:23;;;;;;;1.00;0.90;;;;;;;7.81;100.00;98805.64;1801547;77;20956;-62
2021/12/31 04:35:50;;;;;;;1.62;1.12;;;;;;;7.81;100.00;98793.95;1812931;77;20912;-61
2021/12/31 04:38:17;;;;;;;0.57;0.57;;;;;;;7.82;100.00;98791.72;1812952;77;21052;-62
2021/12/31 04:40:43;;;;;;;0.75;0.75;;;;;;;7.85;100.00;98790.72;1818379;77;20879;-61
2021/12/31 04:43:10;;;;;;;0.50;0.40;;;;;;;7.85;100.00;98801.95;1814633;77;20914;-62
2021/12/31 04:45:37;;;;;;;0.88;0.88;;;;;;;7.85;100.00;98798.52;1804418;77;20935;-61
2021/12/31 04:48:04;;;;;;;4.03;0.63;;;;;;;7.87;100.00;98790.63;1807489;77;20903;-61
2021/12/31 04:50:31;;;;;;;;;;;;;;;7.89;100.00;98781.00;1801174;77;21166;-62
2021/12/31 04:52:57;;;;;;;0.40;0.40;;;;;;;7.88;100.00;98787.13;1809290;77;20181;-61
2021/12/31 04:55:24;;;;;;;0.70;0.60;;;;;;;7.89;100.00;98794.00;1817307;77;21007;-62
2021/12/31 04:57:51;;;;;;;0.57;0.50;;;;;;;7.89;100.00;98794.00;1811353;77;20982;-61
2021/12/31 05:00:18;;;;;;;0.82;0.60;;;;;;;7.92;100.00;98805.53;1762204;79;21033;-61
2021/12/31 05:02:45;;;;;;;0.53;0.53;;;;;;;7.90;100.00;98795.66;1748324;80;21127;-61
2021/12/31 05:05:11;;;;;;;0.73;0.73;;;;;;;7.91;100.00;98792.17;1779655;79;20936;-62
2021/12/31 05:07:38;;;;;;;3.17;2.98;;;;;;;7.92;100.00;98793.84;1760394;79;21498;-62
2021/12/31 05:10:07;;;;;;;1.35;1.25;;;;;;;7.92;100.00;98788.64;1765498;79;21474;-62
2021/12/31 05:12:36;;;;;;;1.30;1.20;;;;;;;7.95;100.00;98791.08;1758798;79;21118;-62
2021/12/31 05:15:07;;;;;;;1.27;1.17;;;;;;;7.97;100.00;98795.28;1761822;80;21242;-61
2021/12/31 05:17:34;;;;;;;1.12;0.98;;;;;;;7.97;100.00;98795.28;1751796;79;21529;-61
2021/12/31 05:20:02;;;;;;;1.10;0.98;;;;;;;7.99;100.00;98794.75;1737547;80;20876;-61
2021/12/31 05:22:28;;;;;;;1.15;1.02;;;;;;;8.01;100.00;98803.75;1763488;79;21449;-62
2021/12/31 05:24:55;;;;;;;0.80;0.77;;;;;;;8.01;100.00;98801.16;1739790;80;21456;-62
2021/12/31 05:27:22;;;;;;;1.23;0.97;;;;;;;8.04;100.00;98798.42;1796680;78;22112;-61
2021/12/31 05:29:48;;;;;;;0.97;0.87;;;;;;;8.02;100.00;98808.05;1807071;77;20891;-62
2021/12/31 05:32:15;;;;;;;0.70;0.70;;;;;;;8.02;100.00;98805.45;1814392;77;20887;-62
2021/12/31 05:34:42;;;;;;;1.33;1.10;;;;;;;8.04;100.00;98808.83;1811154;77;20960;-62
2021/12/31 05:37:08;;;;;;;1.23;1.10;;;;;;;8.06;100.00;98809.56;1809445;77;20945;-62
2021/12/31 05:39:35;;;;;;;1.20;1.10;;;;;;;8.07;100.00;98800.86;1812500;77;21780;-62
2021/12/31 05:42:02;;;;;;;0.90;0.80;;;;;;;8.08;100.00;98805.13;1819892;77;21442;-61
2021/12/31 05:44:29;;;;;;;0.90;0.80;;;;;;;8.08;100.00;98809.03;1813729;77;20888;-61
2021/12/31 05:46:56;;;;;;;0.80;0.80;;;;;;;8.09;100.00;98805.50;1809220;77;21003;-62
2021/12/31 05:49:23;;;;;;;0.93;0.82;;;;;;;8.10;100.00;98800.70;1813928;77;20876;-62
2021/12/31 05:51:50;;;;;;;0.60;0.60;;;;;;;8.11;100.00;98804.97;1801676;77;21895;-61
2021/12/31 05:54:17;;;;;;;0.98;0.80;;;;;;;8.13;100.00;98803.14;1809113;77;20914;-62
2021/12/31 05:56:43;;;;;;;1.03;0.90;;;;;;;8.15;100.00;98803.91;1808569;77;20934;-61
2021/12/31 14:36:09;;;;;;;3.47;3.12;;;;;;;8.65;100.00;98524.56;1835722;77;22221;-59
2021/12/31 14:38:40;;;;;;;1.90;1.70;;;;;;;8.60;100.00;98520.12;1820336;77;20958;-59
2021/12/31 14:41:21;;;;;;;2.22;2.02;;;;;;;8.62;100.00;98526.52;1815151;77;21076;-59
2021/12/31 14:43:48;;;;;;;4.47;1.75;;;;;;;8.65;100.00;98529.77;1819874;77;21653;-60
2021/12/31 14:46:18;;;;;;;2.05;1.75;;;;;;;8.67;100.00;98526.62;1821217;77;20933;-59
2021/12/31 14:48:45;;;;;;;2.35;1.22;;;;;;;8.67;100.00;98512.31;1831508;77;21060;-59
2021/12/31 14:51:12;;;;;;;;;;;;;;;8.69;100.00;98528.67;1825220;77;20985;-59
2021/12/31 14:53:39;;;;;;;2.90;2.17;;;;;;;8.72;100.00;98519.39;1827945;78;22109;-59
2021/12/31 14:56:09;;;;;;;2.35;1.45;;;;;;;8.73;100.00;98518.45;1823405;77;20981;-59
2021/12/31 14:58:39;;;;;;;0.90;0.88;;;;;;;8.77;100.00;98533.44;1827777;77;20973;-60
2021/12/31 15:01:06;;;;;;;1.40;1.05;;;;;;;8.80;100.00;98523.31;1820541;77;21036;-59
2021/12/31 15:03:36;;;;;;;2.37;0.95;;;;;;;8.81;100.00;98520.61;1825733;77;20943;-59
2021/12/31 15:06:07;;;;;;;2.12;0.93;;;;;;;8.89;100.00;98529.27;1825053;77;21991;-59
2021/12/31 15:08:34;;;;;;;1.40;0.80;;;;;;;8.93;100.00;98522.94;1820805;77;21071;-60
2021/12/31 15:11:07;;;;;;;0.70;0.60;;;;;;;8.96;100.00;98516.24;1823779;77;21060;-60
2021/12/31 15:13:38;;;;;;;0.82;0.68;;;;;;;8.97;100.00;98516.64;1826459;77;21008;-60
2021/12/31 15:16:06;;;;;;;0.40;0.40;;;;;;;8.96;100.00;98522.75;1824952;77;21054;-60
2021/12/31 15:18:35;;;;;;;0.72;0.60;;;;;;;8.97;100.00;98507.52;1788798;78;21642;-60
2021/12/31 15:21:03;;;;;;;0.70;0.65;;;;;;;9.06;100.00;98503.05;1751829;80;21457;-59
2021/12/31 15:23:35;;;;;;;1.98;1.00;;;;;;;9.09;100.00;98517.19;1739485;79;28351;-59
2021/12/31 15:26:06;;;;;;;1.10;0.90;;;;;;;9.12;100.00;98505.28;1765409;79;20954;-59
2021/12/31 15:28:34;;;;;;;1.07;0.40;;;;;;;9.14;100.00;98506.03;1754394;79;21041;-60
2021/12/31 15:31:02;;;;;;;0.60;0.50;;;;;;;9.13;100.00;98497.86;1730166;79;22678;-60
2021/12/31 15:33:30;;;;;;;1.62;0.82;;;;;;;9.14;100.00;98507.34;1768379;79;21095;-60
2021/12/31 15:36:00;;;;;;;0.45;0.40;;;;;;;9.13;100.00;98489.19;1730309;81;21033;-61
2021/12/31 15:38:27;;;;;;;0.62;0.33;;;;;;;9.10;100.00;98499.35;1754343;80;21314;-61
2021/12/31 15:40:54;;;;;;;;;;;;;;;9.11;100.00;98508.00;1733918;80;21061;-60
2021/12/31 15:43:22;;;;;;;0.98;0.80;;;;;;;9.12;100.00;98497.47;1749274;81;21395;-60
2021/12/31 15:45:49;;;;;;;0.95;0.60;;;;;;;9.17;100.00;98513.66;1751226;80;20945;-60
2021/12/31 15:48:15;;;;;;;0.72;0.40;;;;;;;9.15;100.00;98514.20;1746829;80;20951;-60
2021/12/31 15:50:42;;;;;;;0.37;0.30;;;;;;;9.18;100.00;98497.09;1752130;81;21006;-60
2021/12/31 15:53:09;;;;;;;1.42;0.50;;;;;;;9.24;100.00;98511.98;1754616;81;21057;-60
2021/12/31 15:55:37;;;;;;;0.98;0.70;;;;;;;9.20;100.00;98519.15;1750330;81;21121;-61
2021/12/31 15:58:06;;;;;;;0.50;0.50;;;;;;;9.22;100.00;98512.56;1752265;81;21005;-60
2021/12/31 16:00:33;;;;;;;0.82;0.57;;;;;;;9.25;100.00;98518.88;1755775;81;20989;-61
2021/12/31 16:03:00;;;;;;;0.40;0.40;;;;;;;9.23;100.00;98519.43;1753373;80;21008;-60
2021/12/31 16:05:28;;;;;;;0.78;0.62;;;;;;;9.18;100.00;98523.13;1752488;80;21029;-60
2021/12/31 16:07:54;;;;;;;6.92;3.33;;;;;;;9.13;100.00;98501.77;1754092;81;21511;-59
2021/12/31 16:10:26;;;;;;;6.25;3.05;;;;;;;9.09;100.00;98530.20;1754323;81;21015;-60
2021/12/31 16:12:55;;;;;;;2.75;1.80;;;;;;;9.05;100.00;98519.62;1754307;81;21007;-58
2021/12/31 16:15:22;;;;;;;1.30;1.10;;;;;;;8.98;100.00;98504.45;1755537;81;21011;-60
2021/12/31 16:17:49;;;;;;;0.47;0.47;;;;;;;8.91;100.00;98517.01;1752950;81;21292;-59
2021/12/31 16:20:18;;;;;;;0.53;0.53;;;;;;;8.85;100.00;98513.45;1754528;81;21643;-59
2021/12/31 16:22:46;;;;;;;0.85;0.47;;;;;;;8.82;100.00;98530.55;1753771;81;21114;-60
2021/12/31 16:25:14;;;;;;;0.88;0.50;;;;;;;8.76;100.00;98536.12;1746905;81;21381;-60
2021/12/31 16:27:48;;;;;;;0.40;0.40;;;;;;;8.69;100.00;98528.67;1754707;80;20912;-60
2021/12/31 16:30:17;;;;;;;0.57;0.30;;;;;;;8.65;100.00;98544.08;1753955;81;21084;-59
2021/12/31 16:32:45;;;;;;;0.57;0.40;;;;;;;8.60;100.00;98540.93;1756923;80;22280;-60
2021/12/31 16:35:13;;;;;;;;;;;;;;;8.55;100.00;98549.45;1756972;78;21566;-60
2021/12/31 16:37:41;;;;;;;0.23;0.23;;;;;;;8.51;100.00;98545.34;1755780;81;20141;-60
2021/12/31 16:40:13;;;;;;;;;;;;;;;8.46;100.00;98538.29;1754615;81;20985;-60
2021/12/31 16:42:40;;;;;;;0.62;0.30;;;;;;;8.41;100.00;98555.45;1755333;81;20169;-60
2021/12/31 16:45:09;;;;;;;1.17;0.50;;;;;;;8.37;100.00;98560.87;1747974;81;21513;-60
2021/12/31 16:47:36;;;;;;;0.85;0.40;;;;;;;8.30;100.00;98557.33;1726239;81;20905;-60
2021/12/31 16:50:08;;;;;;;0.65;0.30;;;;;;;8.27;100.00;98558.80;1730464;82;21028;-60
2021/12/31 16:52:35;;;;;;;0.40;0.30;;;;;;;8.23;100.00;98565.11;1740947;82;20968;-60
2021/12/31 16:55:05;;;;;;;1.00;0.30;;;;;;;8.18;100.00;98572.33;1730778;82;21021;-60
2021/12/31 16:57:32;;;;;;;0.42;0.40;;;;;;;8.11;100.00;98583.98;1736998;82;22173;-60
2021/12/31 16:59:58;;;;;;;0.50;0.40;;;;;;;8.03;100.00;98572.69;1737712;80;21547;-59
2021/12/31 17:02:25;;;;;;;0.77;0.33;;;;;;;7.98;100.00;98575.17;1730622;80;21038;-60
2021/12/31 17:04:52;;;;;;;0.88;0.50;;;;;;;7.96;100.00;98590.03;1715214;80;20964;-60
2021/12/31 17:07:19;;;;;;;2.95;0.50;;;;;;;7.93;100.00;98579.80;1735127;81;21000;-60
2021/12/31 17:09:46;;;;;;;0.28;0.28;;;;;;;7.90;100.00;98576.05;1723881;81;21156;-60
2021/12/31 17:12:12;;;;;;;0.63;0.50;;;;;;;7.85;100.00;98594.04;1742317;81;21059;-60
2021/12/31 17:14:39;;;;;;;0.78;0.50;;;;;;;7.79;100.00;98594.38;1736625;81;21016;-60
2021/12/31 17:17:06;;;;;;;0.62;0.40;;;;;;;7.74;100.00;98595.08;1737199;81;20897;-59
2021/12/31 17:19:32;;;;;;;1.12;0.50;;;;;;;7.71;100.00;98588.75;1732892;82;20945;-60
2021/12/31 17:21:59;;;;;;;0.47;0.40;;;;;;;7.70;100.00;98601.81;1734120;81;22456;-60
2021/12/31 17:24:29;;;;;;;0.97;0.40;;;;;;;7.67;100.00;98585.92;1737543;81;20921;-60
2021/12/31 17:26:56;;;;;;;1.10;0.93;;;;;;;7.64;100.00;98597.78;1729409;81;21157;-59
2021/12/31 17:29:23;;;;;;;0.60;0.53;;;;;;;7.61;100.00;98603.14;1738185;82;21031;-59
2021/12/31 17:31:53;;;;;;;0.50;0.40;;;;;;;7.55;100.00;98603.47;1730900;82;20948;-60
2021/12/31 17:34:21;;;;;;;0.70;0.50;;;;;;;7.54;100.00;98592.25;1736724;82;21303;-61
2021/12/31 17:36:48;;;;;;;0.40;0.40;;;;;;;7.51;100.00;98601.97;1759117;79;22494;-60
2021/12/31 17:39:16;;;;;;;0.60;0.40;;;;;;;7.47;100.00;98608.23;1756232;80;21071;-60
2021/12/31 17:41:43;;;;;;;1.00;0.60;;;;;;;7.43;100.00;98606.72;1758194;81;20930;-60
2021/12/31 17:44:10;;;;;;;0.50;0.40;;;;;;;7.40;100.00;98605.95;1759970;81;21663;-60
2021/12/31 17:46:38;;;;;;;0.60;0.33;;;;;;;7.37;100.00;98606.12;1759346;81;21129;-60
2021/12/31 17:49:05;;;;;;;1.10;0.65;;;;;;;7.36;100.00;98620.00;1756674;81;20984;-60
2021/12/31 17:51:34;;;;;;;1.25;0.70;;;;;;;7.36;100.00;98625.20;1761106;81;21550;-60
2021/12/31 17:54:01;;;;;;;0.93;0.78;;;;;;;7.35;100.00;98625.29;1758838;81;21496;-60
2021/12/31 17:56:28;;;;;;;0.70;0.60;;;;;;;7.33;100.00;98627.95;1760357;80;21490;-60
2021/12/31 17:58:54;;;;;;;1.62;1.10;;;;;;;7.32;100.00;98639.73;1761534;81;22858;-59
2021/12/31 18:01:21;;;;;;;0.98;0.90;;;;;;;7.29;100.00;98647.22;1757092;80;20985;-60
2021/12/31 18:03:48;;;;;;;1.20;1.10;;;;;;;7.29;100.00;98661.97;1757213;81;20991;-60
2021/12/31 18:06:14;;;;;;;1.67;1.15;;;;;;;7.27;100.00;98659.89;1754062;81;21347;-60
2021/12/31 18:08:41;;;;;;;2.50;1.37;;;;;;;7.25;100.00;98683.79;1755906;81;21049;-59
2021/12/31 18:11:08;;;;;;;2.40;1.97;;;;;;;7.21;100.00;98691.36;1752972;81;21091;-59
2021/12/31 18:13:36;;;;;;;2.05;1.85;;;;;;;7.15;100.00;98684.26;1757371;81;20933;-60
2021/12/31 18:16:03;;;;;;;;;;;;;;;7.15;100.00;98699.00;1756609;81;20984;-59
2021/12/31 18:18:30;;;;;;;4.10;1.77;;;;;;;7.10;100.00;98712.66;1760315;81;20425;-59
2021/12/31 18:20:57;;;;;;;1.37;1.27;;;;;;;7.06;100.00;98683.89;1751963;81;21543;-59
2021/12/31 18:23:24;;;;;;;;;;;;;;;7.01;100.00;98688.46;1755792;81;21028;-60
2021/12/31 18:25:50;;;;;;;1.87;1.40;;;;;;;6.98;100.00;98683.42;1757032;81;20203;-59
2021/12/31 18:28:17;;;;;;;1.50;1.15;;;;;;;6.94;100.00;98677.06;1761097;81;21009;-59
2021/12/31 18:30:44;;;;;;;1.10;0.95;;;;;;;6.91;100.00;98688.89;1757235;81;20898;-60
2021/12/31 18:33:10;;;;;;;1.47;0.95;;;;;;;6.91;100.00;98701.86;1758720;80;21020;-59
2021/12/31 18:35:37;;;;;;;1.10;1.00;;;;;;;6.89;100.00;98698.53;1756161;79;21140;-60
2021/12/31 18:38:08;;;;;;;1.57;1.00;;;;;;;6.88;100.00;98686.45;1751436;81;20902;-60
2021/12/31 18:40:36;;;;;;;1.07;0.98;;;;;;;6.88;100.00;98702.48;1755079;80;21515;-59
2021/12/31 18:43:03;;;;;;;0.80;0.80;;;;;;;6.89;100.00;98713.23;1760286;81;20992;-60
2021/12/31 18:45:30;;;;;;;1.55;1.25;;;;;;;6.87;100.00;98722.86;1758993;81;25068;-60
2021/12/31 18:48:01;;;;;;;1.37;1.27;;;;;;;6.82;100.00;98723.08;1758341;81;21246;-59
2021/12/31 18:50:29;;;;;;;4.33;1.67;;;;;;;6.84;100.00;98729.04;1754044;81;20993;-60
2021/12/31 18:52:56;;;;;;;2.95;1.27;;;;;;;6.81;100.00;98727.89;1756917;80;21008;-60
2021/12/31 18:55:25;;;;;;;2.75;1.70;;;;;;;6.81;100.00;98733.55;1751383;81;20992;-60
2021/12/31 18:57:52;;;;;;;1.42;1.27;;;;;;;6.78;100.00;98737.13;1759323;81;20937;-59
2021/12/31 19:00:19;;;;;;;7.25;1.90;;;;;;;6.76;100.00;98741.53;1757663;81;21201;-60
2021/12/31 19:02:48;;;;;;;2.10;1.72;;;;;;;6.75;100.00;98743.76;1755447;81;20981;-60
2021/12/31 19:05:15;;;;;;;2.10;1.70;;;;;;;6.74;100.00;98752.44;1760662;81;20941;-60
2021/12/31 19:07:42;;;;;;;;;;;;;;;6.74;100.00;98761.52;1758882;81;21586;-60
2021/12/31 19:10:10;;;;;;;2.22;1.87;;;;;;;6.71;100.00;98759.90;1758206;80;20167;-59
2021/12/31 19:12:38;;;;;;;2.15;1.70;;;;;;;6.71;100.00;98769.44;1759396;81;21094;-60
2021/12/31 19:15:06;;;;;;;2.00;1.62;;;;;;;6.72;100.00;98778.89;1757057;81;21055;-60
2021/12/31 19:17:33;;;;;;;1.72;1.52;;;;;;;6.71;100.00;98783.25;1757137;80;21483;-60
2021/12/31 19:20:00;;;;;;;2.98;2.65;;;;;;;6.67;100.00;98786.08;1761138;80;21740;-60
2021/12/31 19:22:29;;;;;;;1.80;1.53;;;;;;;6.65;100.00;98795.67;1756966;80;21076;-59
2021/12/31 19:24:59;;;;;;;1.17;0.88;;;;;;;6.63;100.00;98798.32;1760340;80;21247;-60
2021/12/31 19:27:25;;;;;;;1.62;1.40;;;;;;;6.62;100.00;98798.41;1754569;81;21578;-59
2021/12/31 19:29:54;;;;;;;1.15;0.90;;;;;;;6.61;100.00;98801.89;1761248;81;20969;-60
2021/12/31 19:32:21;;;;;;;1.30;0.98;;;;;;;6.62;100.00;98803.59;1758399;81;21648;-60
2021/12/31 19:34:49;;;;;;;1.37;0.90;;;;;;;6.62;100.00;98804.89;1758618;80;20937;-60
2021/12/31 19:37:16;;;;;;;1.40;1.02;;;;;;;6.62;100.00;98815.27;1786003;78;21080;-60
2021/12/31 19:39:42;;;;;;;1.47;0.80;;;;;;;6.62;100.00;98816.56;1788344;80;22157;-60
2021/12/31 19:42:09;;;;;;;1.10;0.90;;;;;;;6.61;100.00;98815.73;1792105;78;21142;-60
2021/12/31 19:44:36;;;;;;;1.47;1.00;;;;;;;6.58;100.00;98811.11;1791776;78;20957;-60
2021/12/31 19:47:03;;;;;;;0.75;0.75;;;;;;;6.58;100.00;98815.00;1788684;80;21000;-59
2021/12/31 19:49:30;;;;;;;1.02;0.85;;;;;;;6.59;100.00;98817.55;1789862;78;21080;-60
2021/12/31 19:51:57;;;;;;;1.17;0.90;;;;;;;6.56;100.00;98822.04;1778286;79;21642;-60
2021/12/31 19:54:24;;;;;;;1.52;0.60;;;;;;;6.57;100.00;98819.36;1777755;78;20980;-60
2021/12/31 19:56:52;;;;;;;1.50;1.10;;;;;;;6.58;100.00;98816.30;1775484;80;20942;-60
2021/12/31 19:59:19;;;;;;;1.02;0.65;;;;;;;6.54;100.00;98823.39;1792423;78;21492;-60
2021/12/31 20:01:45;;;;;;;1.27;0.60;;;;;;;6.57;100.00;98828.89;1793718;79;21064;-60
2021/12/31 20:04:12;;;;;;;0.70;0.60;;;;;;;6.58;100.00;98829.27;1806557;78;20882;-60
2021/12/31 20:06:39;;;;;;;1.37;0.78;;;;;;;6.57;100.00;98830.20;1792172;78;20930;-60
2021/12/31 20:09:10;;;;;;;1.57;0.60;;;;;;;6.59;100.00;98832.27;1761802;80;21508;-60
2021/12/31 20:11:34;;;;;;;1.10;1.00;;;;;;;6.58;100.00;98835.75;1781890;78;20863;-60
2021/12/31 20:14:01;;;;;;;0.80;0.80;;;;;;;6.58;100.00;98827.97;1799274;78;21485;-60
2021/12/31 20:16:27;;;;;;;2.17;1.67;;;;;;;6.58;100.00;98834.03;1775968;78;20945;-60
2021/12/31 20:18:54;;;;;;;2.25;1.60;;;;;;;6.60;100.00;98844.31;1775869;78;20979;-59
2021/12/31 20:21:21;;;;;;;4.45;3.87;;;;;;;6.59;100.00;98845.23;1794898;78;20938;-60